sensor_id;sensor_type;location;lat;lon;timestamp;P1;durP1;ratioP1;P2;durP2;ratioP2
22778;SDS011;11556;51.194;3.800;2023-07-29T00:00:48;4.97;;;3.20;;
22778;SDS011;11556;51.194;3.800;2023-07-29T00:03:14;6.53;;;3.33;;
22778;SDS011;11556;51.194;3.800;2023-07-29T00:05:40;6.07;;;3.30;;
22778;SDS011;11556;51.194;3.800;2023-07-29T00:08:06;6.50;;;2.97;;
22778;SDS011;11556;51.194;3.800;2023-07-29T00:10:31;5.68;;;3.08;;
22778;SDS011;11556;51.194;3.800;2023-07-29T00:12:58;6.07;;;2.90;;
22778;SDS011;11556;51.194;3.800;2023-07-29T00:15:24;4.25;;;3.10;;
22778;SDS011;11556;51.194;3.800;2023-07-29T00:17:49;3.40;;;2.63;;
22778;SDS011;11556;51.194;3.800;2023-07-29T00:20:15;5.53;;;3.05;;
22778;SDS011;11556;51.194;3.800;2023-07-29T00:22:41;3.72;;;2.90;;
22778;SDS011;11556;51.194;3.800;2023-07-29T00:25:06;4.60;;;2.53;;
22778;SDS011;11556;51.194;3.800;2023-07-29T00:27:32;4.13;;;2.70;;
22778;SDS011;11556;51.194;3.800;2023-07-29T00:29:58;3.88;;;2.83;;
22778;SDS011;11556;51.194;3.800;2023-07-29T00:32:24;3.83;;;2.47;;
22778;SDS011;11556;51.194;3.800;2023-07-29T00:34:49;5.45;;;2.40;;
22778;SDS011;11556;51.194;3.800;2023-07-29T00:37:15;2.90;;;2.35;;
22778;SDS011;11556;51.194;3.800;2023-07-29T00:39:41;3.63;;;2.20;;
22778;SDS011;11556;51.194;3.800;2023-07-29T00:42:06;4.38;;;2.70;;
22778;SDS011;11556;51.194;3.800;2023-07-29T00:44:32;3.47;;;2.67;;
22778;SDS011;11556;51.194;3.800;2023-07-29T00:46:58;3.53;;;2.72;;
22778;SDS011;11556;51.194;3.800;2023-07-29T00:49:27;4.95;;;2.85;;
22778;SDS011;11556;51.194;3.800;2023-07-29T00:51:53;5.07;;;3.42;;
22778;SDS011;11556;51.194;3.800;2023-07-29T00:54:18;3.55;;;2.70;;
22778;SDS011;11556;51.194;3.800;2023-07-29T00:56:44;5.03;;;3.30;;
22778;SDS011;11556;51.194;3.800;2023-07-29T00:59:10;3.40;;;2.88;;
22778;SDS011;11556;51.194;3.800;2023-07-29T01:01:36;6.30;;;3.22;;
22778;SDS011;11556;51.194;3.800;2023-07-29T01:04:01;6.13;;;2.95;;
22778;SDS011;11556;51.194;3.800;2023-07-29T01:09:14;5.25;;;3.70;;
22778;SDS011;11556;51.194;3.800;2023-07-29T01:12:18;5.18;;;3.30;;
22778;SDS011;11556;51.194;3.800;2023-07-29T01:14:51;5.78;;;3.25;;
22778;SDS011;11556;51.194;3.800;2023-07-29T01:17:42;5.10;;;2.90;;
22778;SDS011;11556;51.194;3.800;2023-07-29T01:20:16;4.47;;;2.97;;
22778;SDS011;11556;51.194;3.800;2023-07-29T01:22:45;4.63;;;3.00;;
22778;SDS011;11556;51.194;3.800;2023-07-29T01:25:12;5.13;;;3.28;;
22778;SDS011;11556;51.194;3.800;2023-07-29T01:27:38;4.47;;;2.90;;
22778;SDS011;11556;51.194;3.800;2023-07-29T01:30:04;3.60;;;2.80;;
22778;SDS011;11556;51.194;3.800;2023-07-29T01:37:52;6.00;;;2.92;;
22778;SDS011;11556;51.194;3.800;2023-07-29T01:40:26;3.47;;;2.70;;
22778;SDS011;11556;51.194;3.800;2023-07-29T01:42:53;3.83;;;2.97;;
22778;SDS011;11556;51.194;3.800;2023-07-29T01:45:22;3.20;;;2.55;;
22778;SDS011;11556;51.194;3.800;2023-07-29T01:47:49;5.20;;;2.50;;
22778;SDS011;11556;51.194;3.800;2023-07-29T01:50:15;4.15;;;2.70;;
22778;SDS011;11556;51.194;3.800;2023-07-29T01:52:40;5.05;;;2.72;;
22778;SDS011;11556;51.194;3.800;2023-07-29T01:55:06;9.02;;;3.10;;
22778;SDS011;11556;51.194;3.800;2023-07-29T01:57:32;4.97;;;3.00;;
22778;SDS011;11556;51.194;3.800;2023-07-29T01:59:57;6.43;;;3.03;;
22778;SDS011;11556;51.194;3.800;2023-07-29T02:02:23;4.43;;;2.85;;
22778;SDS011;11556;51.194;3.800;2023-07-29T02:04:49;3.70;;;2.70;;
22778;SDS011;11556;51.194;3.800;2023-07-29T02:07:16;2.63;;;2.38;;
22778;SDS011;11556;51.194;3.800;2023-07-29T02:09:43;3.15;;;2.53;;
22778;SDS011;11556;51.194;3.800;2023-07-29T02:12:09;4.15;;;2.33;;
22778;SDS011;11556;51.194;3.800;2023-07-29T02:14:34;3.10;;;2.30;;
22778;SDS011;11556;51.194;3.800;2023-07-29T02:17:00;5.32;;;2.58;;
22778;SDS011;11556;51.194;3.800;2023-07-29T02:19:26;7.70;;;2.58;;
22778;SDS011;11556;51.194;3.800;2023-07-29T02:21:51;4.03;;;2.58;;
22778;SDS011;11556;51.194;3.800;2023-07-29T02:24:17;3.10;;;2.35;;
22778;SDS011;11556;51.194;3.800;2023-07-29T02:26:42;4.57;;;3.17;;
22778;SDS011;11556;51.194;3.800;2023-07-29T02:29:08;4.35;;;2.70;;
22778;SDS011;11556;51.194;3.800;2023-07-29T02:31:33;4.95;;;2.65;;
22778;SDS011;11556;51.194;3.800;2023-07-29T02:34:00;5.05;;;2.97;;
22778;SDS011;11556;51.194;3.800;2023-07-29T02:36:25;5.00;;;3.20;;
22778;SDS011;11556;51.194;3.800;2023-07-29T02:38:51;4.97;;;2.70;;
22778;SDS011;11556;51.194;3.800;2023-07-29T02:41:16;4.72;;;3.00;;
22778;SDS011;11556;51.194;3.800;2023-07-29T02:43:43;3.83;;;3.00;;
22778;SDS011;11556;51.194;3.800;2023-07-29T02:46:12;4.78;;;2.80;;
22778;SDS011;11556;51.194;3.800;2023-07-29T02:48:38;5.13;;;2.90;;
22778;SDS011;11556;51.194;3.800;2023-07-29T02:51:03;4.65;;;3.17;;
22778;SDS011;11556;51.194;3.800;2023-07-29T02:53:29;7.03;;;3.25;;
22778;SDS011;11556;51.194;3.800;2023-07-29T02:55:55;4.47;;;2.40;;
22778;SDS011;11556;51.194;3.800;2023-07-29T02:58:20;3.97;;;2.95;;
22778;SDS011;11556;51.194;3.800;2023-07-29T03:00:46;4.38;;;2.92;;
22778;SDS011;11556;51.194;3.800;2023-07-29T03:03:13;3.10;;;2.55;;
22778;SDS011;11556;51.194;3.800;2023-07-29T03:05:39;4.35;;;2.70;;
22778;SDS011;11556;51.194;3.800;2023-07-29T03:08:05;5.28;;;2.70;;
22778;SDS011;11556;51.194;3.800;2023-07-29T03:10:30;4.28;;;2.42;;
22778;SDS011;11556;51.194;3.800;2023-07-29T03:12:56;5.55;;;2.67;;
22778;SDS011;11556;51.194;3.800;2023-07-29T03:15:25;3.85;;;3.05;;
22778;SDS011;11556;51.194;3.800;2023-07-29T03:17:51;5.55;;;2.88;;
22778;SDS011;11556;51.194;3.800;2023-07-29T03:20:17;4.40;;;2.88;;
22778;SDS011;11556;51.194;3.800;2023-07-29T03:22:43;4.90;;;2.85;;
22778;SDS011;11556;51.194;3.800;2023-07-29T03:25:09;6.07;;;3.25;;
22778;SDS011;11556;51.194;3.800;2023-07-29T03:27:34;4.10;;;2.97;;
22778;SDS011;11556;51.194;3.800;2023-07-29T03:30:02;5.13;;;2.90;;
22778;SDS011;11556;51.194;3.800;2023-07-29T03:32:28;6.28;;;2.80;;
22778;SDS011;11556;51.194;3.800;2023-07-29T03:34:53;4.82;;;2.97;;
22778;SDS011;11556;51.194;3.800;2023-07-29T03:37:19;5.03;;;2.78;;
22778;SDS011;11556;51.194;3.800;2023-07-29T03:39:46;4.63;;;2.78;;
22778;SDS011;11556;51.194;3.800;2023-07-29T03:42:12;3.70;;;3.03;;
22778;SDS011;11556;51.194;3.800;2023-07-29T03:44:38;4.13;;;3.05;;
22778;SDS011;11556;51.194;3.800;2023-07-29T03:47:04;5.20;;;3.20;;
22778;SDS011;11556;51.194;3.800;2023-07-29T03:49:31;6.72;;;3.05;;
22778;SDS011;11556;51.194;3.800;2023-07-29T03:51:56;4.55;;;2.65;;
22778;SDS011;11556;51.194;3.800;2023-07-29T03:54:22;4.40;;;2.80;;
22778;SDS011;11556;51.194;3.800;2023-07-29T03:56:48;5.60;;;3.30;;
22778;SDS011;11556;51.194;3.800;2023-07-29T03:59:13;4.82;;;3.45;;
22778;SDS011;11556;51.194;3.800;2023-07-29T04:01:39;4.47;;;2.83;;
22778;SDS011;11556;51.194;3.800;2023-07-29T04:04:05;5.10;;;3.10;;
22778;SDS011;11556;51.194;3.800;2023-07-29T04:06:30;5.25;;;3.13;;
22778;SDS011;11556;51.194;3.800;2023-07-29T04:08:57;4.18;;;2.92;;
22778;SDS011;11556;51.194;3.800;2023-07-29T04:11:23;5.15;;;3.20;;
22778;SDS011;11556;51.194;3.800;2023-07-29T04:13:49;5.32;;;2.88;;
22778;SDS011;11556;51.194;3.800;2023-07-29T04:16:14;4.47;;;3.10;;
22778;SDS011;11556;51.194;3.800;2023-07-29T04:18:41;4.38;;;3.22;;
22778;SDS011;11556;51.194;3.800;2023-07-29T04:21:07;5.95;;;3.25;;
22778;SDS011;11556;51.194;3.800;2023-07-29T04:23:32;4.40;;;3.13;;
22778;SDS011;11556;51.194;3.800;2023-07-29T04:25:58;5.72;;;3.28;;
22778;SDS011;11556;51.194;3.800;2023-07-29T04:28:24;5.80;;;3.15;;
22778;SDS011;11556;51.194;3.800;2023-07-29T04:30:49;5.32;;;3.45;;
22778;SDS011;11556;51.194;3.800;2023-07-29T04:33:15;4.00;;;3.08;;
22778;SDS011;11556;51.194;3.800;2023-07-29T04:35:40;5.22;;;3.72;;
22778;SDS011;11556;51.194;3.800;2023-07-29T04:38:06;7.28;;;3.50;;
22778;SDS011;11556;51.194;3.800;2023-07-29T04:40:32;4.00;;;2.95;;
22778;SDS011;11556;51.194;3.800;2023-07-29T04:43:00;6.65;;;3.15;;
22778;SDS011;11556;51.194;3.800;2023-07-29T04:45:29;3.15;;;2.72;;
22778;SDS011;11556;51.194;3.800;2023-07-29T04:47:56;3.70;;;3.08;;
22778;SDS011;11556;51.194;3.800;2023-07-29T04:50:21;6.82;;;3.00;;
22778;SDS011;11556;51.194;3.800;2023-07-29T04:52:47;4.95;;;3.63;;
22778;SDS011;11556;51.194;3.800;2023-07-29T04:55:13;6.35;;;3.05;;
22778;SDS011;11556;51.194;3.800;2023-07-29T04:57:38;4.65;;;2.95;;
22778;SDS011;11556;51.194;3.800;2023-07-29T05:00:04;3.95;;;2.58;;
22778;SDS011;11556;51.194;3.800;2023-07-29T05:02:30;4.82;;;2.72;;
22778;SDS011;11556;51.194;3.800;2023-07-29T05:04:55;6.10;;;2.80;;
22778;SDS011;11556;51.194;3.800;2023-07-29T05:07:21;3.20;;;2.35;;
22778;SDS011;11556;51.194;3.800;2023-07-29T05:09:47;5.25;;;2.83;;
22778;SDS011;11556;51.194;3.800;2023-07-29T05:12:13;3.55;;;2.08;;
22778;SDS011;11556;51.194;3.800;2023-07-29T05:14:38;6.40;;;2.40;;
22778;SDS011;11556;51.194;3.800;2023-07-29T05:17:04;4.30;;;2.28;;
22778;SDS011;11556;51.194;3.800;2023-07-29T05:19:30;2.85;;;2.53;;
22778;SDS011;11556;51.194;3.800;2023-07-29T05:21:56;4.82;;;2.33;;
22778;SDS011;11556;51.194;3.800;2023-07-29T05:24:22;3.55;;;2.20;;
22778;SDS011;11556;51.194;3.800;2023-07-29T05:26:48;3.83;;;2.28;;
22778;SDS011;11556;51.194;3.800;2023-07-29T05:29:14;4.20;;;2.42;;
22778;SDS011;11556;51.194;3.800;2023-07-29T05:31:39;5.85;;;2.83;;
22778;SDS011;11556;51.194;3.800;2023-07-29T05:34:05;4.38;;;2.47;;
22778;SDS011;11556;51.194;3.800;2023-07-29T05:36:31;2.53;;;2.00;;
22778;SDS011;11556;51.194;3.800;2023-07-29T05:38:56;4.00;;;1.95;;
22778;SDS011;11556;51.194;3.800;2023-07-29T05:41:22;5.10;;;2.05;;
22778;SDS011;11556;51.194;3.800;2023-07-29T05:43:48;2.28;;;1.70;;
22778;SDS011;11556;51.194;3.800;2023-07-29T05:46:13;3.38;;;2.00;;
22778;SDS011;11556;51.194;3.800;2023-07-29T05:48:39;1.98;;;1.50;;
22778;SDS011;11556;51.194;3.800;2023-07-29T05:51:04;1.88;;;1.50;;
22778;SDS011;11556;51.194;3.800;2023-07-29T05:53:30;1.63;;;1.25;;
22778;SDS011;11556;51.194;3.800;2023-07-29T05:55:56;2.35;;;1.73;;
22778;SDS011;11556;51.194;3.800;2023-07-29T05:58:22;1.52;;;1.25;;
22778;SDS011;11556;51.194;3.800;2023-07-29T06:00:47;2.28;;;1.30;;
22778;SDS011;11556;51.194;3.800;2023-07-29T06:03:13;2.95;;;1.40;;
22778;SDS011;11556;51.194;3.800;2023-07-29T06:05:39;3.13;;;1.52;;
22778;SDS011;11556;51.194;3.800;2023-07-29T06:08:04;9.50;;;2.10;;
22778;SDS011;11556;51.194;3.800;2023-07-29T06:10:30;2.67;;;1.83;;
22778;SDS011;11556;51.194;3.800;2023-07-29T06:12:56;3.08;;;1.63;;
22778;SDS011;11556;51.194;3.800;2023-07-29T06:15:21;4.95;;;1.83;;
22778;SDS011;11556;51.194;3.800;2023-07-29T06:17:48;1.70;;;1.52;;
22778;SDS011;11556;51.194;3.800;2023-07-29T06:20:13;2.60;;;1.35;;
22778;SDS011;11556;51.194;3.800;2023-07-29T06:22:40;1.60;;;1.50;;
22778;SDS011;11556;51.194;3.800;2023-07-29T06:25:07;4.30;;;1.80;;
22778;SDS011;11556;51.194;3.800;2023-07-29T06:27:33;3.05;;;1.42;;
22778;SDS011;11556;51.194;3.800;2023-07-29T06:29:58;2.90;;;1.27;;
22778;SDS011;11556;51.194;3.800;2023-07-29T06:32:24;2.47;;;1.60;;
22778;SDS011;11556;51.194;3.800;2023-07-29T06:34:49;4.45;;;1.52;;
22778;SDS011;11556;51.194;3.800;2023-07-29T06:37:18;3.17;;;1.50;;
22778;SDS011;11556;51.194;3.800;2023-07-29T06:39:44;2.35;;;1.50;;
22778;SDS011;11556;51.194;3.800;2023-07-29T06:42:10;3.22;;;1.77;;
22778;SDS011;11556;51.194;3.800;2023-07-29T06:44:35;3.08;;;1.58;;
22778;SDS011;11556;51.194;3.800;2023-07-29T06:47:01;1.77;;;1.50;;
22778;SDS011;11556;51.194;3.800;2023-07-29T06:49:26;1.63;;;1.52;;
22778;SDS011;11556;51.194;3.800;2023-07-29T06:51:52;1.77;;;1.33;;
22778;SDS011;11556;51.194;3.800;2023-07-29T06:54:18;2.65;;;1.58;;
22778;SDS011;11556;51.194;3.800;2023-07-29T06:56:43;3.33;;;1.58;;
22778;SDS011;11556;51.194;3.800;2023-07-29T06:59:09;1.48;;;1.38;;
22778;SDS011;11556;51.194;3.800;2023-07-29T07:01:34;1.50;;;1.40;;
22778;SDS011;11556;51.194;3.800;2023-07-29T07:04:00;2.70;;;1.33;;
22778;SDS011;11556;51.194;3.800;2023-07-29T07:06:25;1.23;;;1.13;;
22778;SDS011;11556;51.194;3.800;2023-07-29T07:08:51;2.42;;;1.30;;
22778;SDS011;11556;51.194;3.800;2023-07-29T07:11:18;2.17;;;1.50;;
22778;SDS011;11556;51.194;3.800;2023-07-29T07:13:43;2.15;;;1.33;;
22778;SDS011;11556;51.194;3.800;2023-07-29T07:16:09;2.47;;;1.30;;
22778;SDS011;11556;51.194;3.800;2023-07-29T07:18:35;5.38;;;1.70;;
22778;SDS011;11556;51.194;3.800;2023-07-29T07:21:00;1.92;;;1.35;;
22778;SDS011;11556;51.194;3.800;2023-07-29T07:23:26;1.70;;;1.42;;
22778;SDS011;11556;51.194;3.800;2023-07-29T07:25:51;2.70;;;1.38;;
22778;SDS011;11556;51.194;3.800;2023-07-29T07:28:17;2.30;;;1.13;;
22778;SDS011;11556;51.194;3.800;2023-07-29T07:30:43;2.13;;;1.30;;
22778;SDS011;11556;51.194;3.800;2023-07-29T07:33:08;2.13;;;1.17;;
22778;SDS011;11556;51.194;3.800;2023-07-29T07:35:34;2.22;;;1.23;;
22778;SDS011;11556;51.194;3.800;2023-07-29T07:38:00;1.75;;;1.20;;
22778;SDS011;11556;51.194;3.800;2023-07-29T07:40:28;2.45;;;1.17;;
22778;SDS011;11556;51.194;3.800;2023-07-29T07:42:55;1.63;;;1.27;;
22778;SDS011;11556;51.194;3.800;2023-07-29T07:45:21;1.70;;;1.30;;
22778;SDS011;11556;51.194;3.800;2023-07-29T07:47:46;2.50;;;1.30;;
22778;SDS011;11556;51.194;3.800;2023-07-29T07:50:12;6.85;;;1.73;;
22778;SDS011;11556;51.194;3.800;2023-07-29T07:52:39;1.77;;;1.40;;
22778;SDS011;11556;51.194;3.800;2023-07-29T07:55:04;3.45;;;1.48;;
22778;SDS011;11556;51.194;3.800;2023-07-29T07:57:30;3.10;;;1.50;;
22778;SDS011;11556;51.194;3.800;2023-07-29T07:59:56;2.70;;;1.30;;
22778;SDS011;11556;51.194;3.800;2023-07-29T08:02:21;2.97;;;1.40;;
22778;SDS011;11556;51.194;3.800;2023-07-29T08:04:47;1.85;;;1.20;;
22778;SDS011;11556;51.194;3.800;2023-07-29T08:07:13;1.40;;;1.30;;
22778;SDS011;11556;51.194;3.800;2023-07-29T08:09:39;1.25;;;1.15;;
22778;SDS011;11556;51.194;3.800;2023-07-29T08:12:04;2.33;;;1.30;;
22778;SDS011;11556;51.194;3.800;2023-07-29T08:14:30;1.00;;;1.00;;
22778;SDS011;11556;51.194;3.800;2023-07-29T08:16:56;1.30;;;1.20;;
22778;SDS011;11556;51.194;3.800;2023-07-29T08:19:22;3.85;;;1.48;;
22778;SDS011;11556;51.194;3.800;2023-07-29T08:21:48;1.88;;;1.15;;
22778;SDS011;11556;51.194;3.800;2023-07-29T08:24:13;1.40;;;1.30;;
22778;SDS011;11556;51.194;3.800;2023-07-29T08:26:39;1.83;;;1.15;;
22778;SDS011;11556;51.194;3.800;2023-07-29T08:29:05;2.08;;;1.60;;
22778;SDS011;11556;51.194;3.800;2023-07-29T08:31:30;2.42;;;1.65;;
22778;SDS011;11556;51.194;3.800;2023-07-29T08:33:58;2.95;;;1.70;;
22778;SDS011;11556;51.194;3.800;2023-07-29T08:36:24;2.08;;;1.70;;
22778;SDS011;11556;51.194;3.800;2023-07-29T08:38:50;2.67;;;1.70;;
22778;SDS011;11556;51.194;3.800;2023-07-29T08:43:56;2.47;;;2.00;;
22778;SDS011;11556;51.194;3.800;2023-07-29T08:46:31;3.92;;;2.22;;
22778;SDS011;11556;51.194;3.800;2023-07-29T08:48:57;2.25;;;1.98;;
22778;SDS011;11556;51.194;3.800;2023-07-29T08:51:26;1.98;;;1.80;;
22778;SDS011;11556;51.194;3.800;2023-07-29T08:53:52;2.63;;;1.90;;
22778;SDS011;11556;51.194;3.800;2023-07-29T08:56:18;3.97;;;1.63;;
22778;SDS011;11556;51.194;3.800;2023-07-29T08:58:44;2.35;;;1.70;;
22778;SDS011;11556;51.194;3.800;2023-07-29T09:01:10;2.17;;;1.60;;
22778;SDS011;11556;51.194;3.800;2023-07-29T09:03:37;2.10;;;1.55;;
22778;SDS011;11556;51.194;3.800;2023-07-29T09:06:02;1.98;;;1.65;;
22778;SDS011;11556;51.194;3.800;2023-07-29T09:08:28;2.25;;;1.77;;
22778;SDS011;11556;51.194;3.800;2023-07-29T09:10:54;2.30;;;1.77;;
22778;SDS011;11556;51.194;3.800;2023-07-29T09:13:20;2.95;;;1.90;;
22778;SDS011;11556;51.194;3.800;2023-07-29T09:15:46;2.40;;;1.92;;
22778;SDS011;11556;51.194;3.800;2023-07-29T09:18:15;2.40;;;1.88;;
22778;SDS011;11556;51.194;3.800;2023-07-29T09:20:42;3.15;;;2.05;;
22778;SDS011;11556;51.194;3.800;2023-07-29T09:23:08;2.80;;;2.08;;
22778;SDS011;11556;51.194;3.800;2023-07-29T09:25:37;3.22;;;2.03;;
22778;SDS011;11556;51.194;3.800;2023-07-29T09:28:11;3.58;;;2.03;;
22778;SDS011;11556;51.194;3.800;2023-07-29T09:30:39;3.63;;;2.20;;
22778;SDS011;11556;51.194;3.800;2023-07-29T09:33:06;2.28;;;2.08;;
22778;SDS011;11556;51.194;3.800;2023-07-29T09:35:32;2.70;;;2.35;;
22778;SDS011;11556;51.194;3.800;2023-07-29T09:38:00;2.53;;;2.33;;
22778;SDS011;11556;51.194;3.800;2023-07-29T09:40:26;3.33;;;1.83;;
22778;SDS011;11556;51.194;3.800;2023-07-29T09:42:53;3.00;;;1.90;;
22778;SDS011;11556;51.194;3.800;2023-07-29T09:45:22;2.53;;;1.83;;
22778;SDS011;11556;51.194;3.800;2023-07-29T09:47:49;2.55;;;1.73;;
22778;SDS011;11556;51.194;3.800;2023-07-29T09:50:15;2.50;;;2.00;;
22778;SDS011;11556;51.194;3.800;2023-07-29T09:52:41;2.78;;;2.20;;
22778;SDS011;11556;51.194;3.800;2023-07-29T09:55:09;2.25;;;1.95;;
22778;SDS011;11556;51.194;3.800;2023-07-29T09:57:39;3.80;;;2.22;;
22778;SDS011;11556;51.194;3.800;2023-07-29T10:00:05;2.40;;;2.20;;
22778;SDS011;11556;51.194;3.800;2023-07-29T10:02:36;5.40;;;2.67;;
22778;SDS011;11556;51.194;3.800;2023-07-29T10:05:04;2.78;;;1.90;;
22778;SDS011;11556;51.194;3.800;2023-07-29T10:07:30;2.42;;;1.70;;
22778;SDS011;11556;51.194;3.800;2023-07-29T10:09:56;3.05;;;1.90;;
22778;SDS011;11556;51.194;3.800;2023-07-29T10:12:24;2.10;;;1.90;;
22778;SDS011;11556;51.194;3.800;2023-07-29T10:14:51;2.75;;;1.85;;
22778;SDS011;11556;51.194;3.800;2023-07-29T10:17:17;4.07;;;1.60;;
22778;SDS011;11556;51.194;3.800;2023-07-29T10:19:45;2.72;;;1.85;;
22778;SDS011;11556;51.194;3.800;2023-07-29T10:22:12;2.13;;;1.90;;
22778;SDS011;11556;51.194;3.800;2023-07-29T10:24:42;1.48;;;1.10;;
22778;SDS011;11556;51.194;3.800;2023-07-29T10:27:09;0.93;;;0.75;;
22778;SDS011;11556;51.194;3.800;2023-07-29T10:29:39;0.82;;;0.70;;
22778;SDS011;11556;51.194;3.800;2023-07-29T10:32:08;0.75;;;0.70;;
22778;SDS011;11556;51.194;3.800;2023-07-29T10:34:37;0.93;;;0.80;;
22778;SDS011;11556;51.194;3.800;2023-07-29T10:37:03;0.90;;;0.90;;
22778;SDS011;11556;51.194;3.800;2023-07-29T10:39:39;2.08;;;1.15;;
22778;SDS011;11556;51.194;3.800;2023-07-29T10:42:16;0.82;;;0.82;;
22778;SDS011;11556;51.194;3.800;2023-07-29T10:47:11;0.98;;;0.73;;
22778;SDS011;11556;51.194;3.800;2023-07-29T10:49:37;1.00;;;0.90;;
22778;SDS011;11556;51.194;3.800;2023-07-29T10:52:06;1.67;;;0.95;;
22778;SDS011;11556;51.194;3.800;2023-07-29T10:54:31;1.45;;;0.98;;
22778;SDS011;11556;51.194;3.800;2023-07-29T10:57:14;1.88;;;1.20;;
22778;SDS011;11556;51.194;3.800;2023-07-29T10:59:55;1.60;;;1.20;;
22778;SDS011;11556;51.194;3.800;2023-07-29T11:02:22;1.42;;;1.13;;
22778;SDS011;11556;51.194;3.800;2023-07-29T11:04:54;1.17;;;0.85;;
22778;SDS011;11556;51.194;3.800;2023-07-29T11:07:20;1.00;;;0.90;;
22778;SDS011;11556;51.194;3.800;2023-07-29T11:09:57;1.75;;;0.90;;
22778;SDS011;11556;51.194;3.800;2023-07-29T11:15:19;1.48;;;0.80;;
22778;SDS011;11556;51.194;3.800;2023-07-29T11:20:12;1.48;;;0.88;;
22778;SDS011;11556;51.194;3.800;2023-07-29T11:22:39;2.28;;;1.10;;
22778;SDS011;11556;51.194;3.800;2023-07-29T11:25:06;1.17;;;1.05;;
22778;SDS011;11556;51.194;3.800;2023-07-29T11:27:34;1.70;;;1.40;;
22778;SDS011;11556;51.194;3.800;2023-07-29T11:30:00;1.27;;;1.20;;
22778;SDS011;11556;51.194;3.800;2023-07-29T11:32:30;1.70;;;1.33;;
22778;SDS011;11556;51.194;3.800;2023-07-29T11:34:55;1.50;;;1.40;;
22778;SDS011;11556;51.194;3.800;2023-07-29T11:37:21;1.73;;;1.60;;
22778;SDS011;11556;51.194;3.800;2023-07-29T11:39:47;1.30;;;1.20;;
22778;SDS011;11556;51.194;3.800;2023-07-29T11:42:16;3.00;;;1.40;;
22778;SDS011;11556;51.194;3.800;2023-07-29T11:44:41;1.50;;;1.40;;
22778;SDS011;11556;51.194;3.800;2023-07-29T11:47:10;1.65;;;1.52;;
22778;SDS011;11556;51.194;3.800;2023-07-29T11:49:40;1.95;;;1.20;;
22778;SDS011;11556;51.194;3.800;2023-07-29T11:52:06;1.40;;;1.30;;
22778;SDS011;11556;51.194;3.800;2023-07-29T11:54:34;2.40;;;1.23;;
22778;SDS011;11556;51.194;3.800;2023-07-29T11:57:02;3.00;;;1.30;;
22778;SDS011;11556;51.194;3.800;2023-07-29T11:59:36;1.75;;;1.50;;
22778;SDS011;11556;51.194;3.800;2023-07-29T12:02:07;2.22;;;1.70;;
22778;SDS011;11556;51.194;3.800;2023-07-29T12:04:36;1.70;;;1.60;;
22778;SDS011;11556;51.194;3.800;2023-07-29T12:07:03;1.60;;;1.50;;
22778;SDS011;11556;51.194;3.800;2023-07-29T12:09:29;2.70;;;1.30;;
22778;SDS011;11556;51.194;3.800;2023-07-29T12:11:55;1.65;;;1.50;;
22778;SDS011;11556;51.194;3.800;2023-07-29T12:14:21;1.73;;;1.40;;
22778;SDS011;11556;51.194;3.800;2023-07-29T12:16:50;2.95;;;1.30;;
22778;SDS011;11556;51.194;3.800;2023-07-29T12:19:17;2.03;;;1.38;;
22778;SDS011;11556;51.194;3.800;2023-07-29T12:21:43;1.30;;;1.20;;
22778;SDS011;11556;51.194;3.800;2023-07-29T12:24:09;1.42;;;1.33;;
22778;SDS011;11556;51.194;3.800;2023-07-29T12:26:36;2.30;;;1.40;;
22778;SDS011;11556;51.194;3.800;2023-07-29T12:29:12;2.72;;;1.20;;
22778;SDS011;11556;51.194;3.800;2023-07-29T12:31:38;1.52;;;1.42;;
22778;SDS011;11556;51.194;3.800;2023-07-29T12:34:03;2.03;;;1.75;;
22778;SDS011;11556;51.194;3.800;2023-07-29T12:36:45;1.85;;;1.20;;
22778;SDS011;11556;51.194;3.800;2023-07-29T12:39:19;1.90;;;1.33;;
22778;SDS011;11556;51.194;3.800;2023-07-29T12:41:48;1.77;;;1.52;;
22778;SDS011;11556;51.194;3.800;2023-07-29T12:44:15;1.42;;;1.20;;
22778;SDS011;11556;51.194;3.800;2023-07-29T12:46:41;2.42;;;1.45;;
22778;SDS011;11556;51.194;3.800;2023-07-29T12:49:07;3.70;;;1.30;;
22778;SDS011;11556;51.194;3.800;2023-07-29T12:51:33;1.70;;;1.35;;
22778;SDS011;11556;51.194;3.800;2023-07-29T12:53:59;1.48;;;1.27;;
22778;SDS011;11556;51.194;3.800;2023-07-29T12:56:25;3.08;;;1.30;;
22778;SDS011;11556;51.194;3.800;2023-07-29T12:58:51;2.47;;;1.05;;
22778;SDS011;11556;51.194;3.800;2023-07-29T13:01:17;0.95;;;0.93;;
22778;SDS011;11556;51.194;3.800;2023-07-29T13:03:43;1.08;;;0.80;;
22778;SDS011;11556;51.194;3.800;2023-07-29T13:06:09;1.20;;;0.88;;
22778;SDS011;11556;51.194;3.800;2023-07-29T13:08:35;1.50;;;1.00;;
22778;SDS011;11556;51.194;3.800;2023-07-29T13:11:00;1.42;;;0.80;;
22778;SDS011;11556;51.194;3.800;2023-07-29T13:13:26;0.80;;;0.70;;
22778;SDS011;11556;51.194;3.800;2023-07-29T13:15:52;1.42;;;1.10;;
22778;SDS011;11556;51.194;3.800;2023-07-29T13:18:18;1.38;;;1.08;;
22778;SDS011;11556;51.194;3.800;2023-07-29T13:20:43;1.90;;;1.00;;
22778;SDS011;11556;51.194;3.800;2023-07-29T13:23:09;1.50;;;0.82;;
22778;SDS011;11556;51.194;3.800;2023-07-29T13:25:34;1.10;;;0.88;;
22778;SDS011;11556;51.194;3.800;2023-07-29T13:28:00;4.05;;;1.02;;
22778;SDS011;11556;51.194;3.800;2023-07-29T13:30:25;1.92;;;1.00;;
22778;SDS011;11556;51.194;3.800;2023-07-29T13:32:51;2.85;;;1.10;;
22778;SDS011;11556;51.194;3.800;2023-07-29T13:35:17;1.23;;;1.05;;
22778;SDS011;11556;51.194;3.800;2023-07-29T13:37:42;1.33;;;1.13;;
22778;SDS011;11556;51.194;3.800;2023-07-29T13:40:08;2.47;;;1.30;;
22778;SDS011;11556;51.194;3.800;2023-07-29T13:42:33;1.52;;;1.27;;
22778;SDS011;11556;51.194;3.800;2023-07-29T13:44:59;2.45;;;1.48;;
22778;SDS011;11556;51.194;3.800;2023-07-29T13:47:25;4.72;;;1.98;;
22778;SDS011;11556;51.194;3.800;2023-07-29T13:49:51;4.07;;;2.17;;
22778;SDS011;11556;51.194;3.800;2023-07-29T13:52:16;2.08;;;1.88;;
22778;SDS011;11556;51.194;3.800;2023-07-29T13:54:42;3.55;;;1.65;;
22778;SDS011;11556;51.194;3.800;2023-07-29T13:57:07;2.67;;;1.35;;
22778;SDS011;11556;51.194;3.800;2023-07-29T13:59:35;1.25;;;1.00;;
22778;SDS011;11556;51.194;3.800;2023-07-29T14:02:03;2.30;;;1.10;;
22778;SDS011;11556;51.194;3.800;2023-07-29T14:04:32;1.08;;;0.93;;
22778;SDS011;11556;51.194;3.800;2023-07-29T14:06:58;1.92;;;1.00;;
22778;SDS011;11556;51.194;3.800;2023-07-29T14:09:24;2.13;;;1.10;;
22778;SDS011;11556;51.194;3.800;2023-07-29T14:11:50;1.55;;;1.00;;
22778;SDS011;11556;51.194;3.800;2023-07-29T14:14:15;1.20;;;0.73;;
22778;SDS011;11556;51.194;3.800;2023-07-29T14:16:41;1.50;;;0.70;;
22778;SDS011;11556;51.194;3.800;2023-07-29T14:19:06;1.02;;;0.80;;
22778;SDS011;11556;51.194;3.800;2023-07-29T14:21:32;0.60;;;0.57;;
22778;SDS011;11556;51.194;3.800;2023-07-29T14:23:58;2.22;;;0.60;;
22778;SDS011;11556;51.194;3.800;2023-07-29T14:26:23;0.63;;;0.57;;
22778;SDS011;11556;51.194;3.800;2023-07-29T14:28:49;0.40;;;0.40;;
22778;SDS011;11556;51.194;3.800;2023-07-29T14:31:24;1.05;;;0.47;;
22778;SDS011;11556;51.194;3.800;2023-07-29T14:33:49;0.40;;;0.40;;
22778;SDS011;11556;51.194;3.800;2023-07-29T14:36:15;0.30;;;0.30;;
22778;SDS011;11556;51.194;3.800;2023-07-29T14:38:41;0.50;;;0.50;;
22778;SDS011;11556;51.194;3.800;2023-07-29T14:41:07;1.25;;;0.43;;
22778;SDS011;11556;51.194;3.800;2023-07-29T14:43:33;1.42;;;0.60;;
22778;SDS011;11556;51.194;3.800;2023-07-29T14:45:58;2.40;;;0.68;;
22778;SDS011;11556;51.194;3.800;2023-07-29T14:48:24;0.60;;;0.60;;
22778;SDS011;11556;51.194;3.800;2023-07-29T14:50:50;2.45;;;0.50;;
22778;SDS011;11556;51.194;3.800;2023-07-29T14:53:15;1.15;;;0.60;;
22778;SDS011;11556;51.194;3.800;2023-07-29T14:55:41;0.50;;;0.50;;
22778;SDS011;11556;51.194;3.800;2023-07-29T14:58:06;0.65;;;0.60;;
22778;SDS011;11556;51.194;3.800;2023-07-29T15:00:32;0.82;;;0.60;;
22778;SDS011;11556;51.194;3.800;2023-07-29T15:02:58;1.25;;;0.70;;